AAL1979 KLAX-KORD
Flight info
| Callsign | AAL1979 |
|---|---|
| Flight time | N/A |
| Altitude | 35000 |
| Route | DOTSS2 CLEEE PKE J96 CIM SLN IRK BENKY6 |
| Aircraft | A321/M-SDE3FGHIRWY/LB1 |
Departure
| Time | 2026-05-06 22:33 |
|---|---|
| Airport | Los Angeles International Airport (KLAX) |
Arrival
| Time | N/A |
|---|---|
| Airport | Chicago O'Hare International Airport (KORD) |
| Time | Latitude | Longitude | Altitude | Speed | Heading |
|---|---|---|---|---|---|
| 2026-05-06 22:01 | 33.93942 | -118.40685 | 112 ft | 0 kts | 9° |
| 2026-05-06 22:20 | 33.93926 | -118.40688 | 92 ft | 3 kts | 9° |
| 2026-05-06 22:20 | 33.93908 | -118.40691 | 92 ft | 3 kts | 339° |
| 2026-05-06 22:20 | 33.93896 | -118.40677 | 94 ft | 3 kts | 279° |
| 2026-05-06 22:21 | 33.93896 | -118.40650 | 92 ft | 3 kts | 263° |
| 2026-05-06 22:21 | 33.93898 | -118.40630 | 91 ft | 0 kts | 263° |
| 2026-05-06 22:25 | 33.93898 | -118.40631 | 93 ft | 0 kts | 263° |
| 2026-05-06 22:25 | 33.93896 | -118.40644 | 97 ft | 3 kts | 263° |
| 2026-05-06 22:25 | 33.93894 | -118.40675 | 95 ft | 5 kts | 264° |
| 2026-05-06 22:26 | 33.93878 | -118.40721 | 94 ft | 7 kts | 227° |
| 2026-05-06 22:26 | 33.93831 | -118.40721 | 95 ft | 8 kts | 148° |
| 2026-05-06 22:26 | 33.93811 | -118.40662 | 96 ft | 8 kts | 89° |
| 2026-05-06 22:26 | 33.93818 | -118.40586 | 94 ft | 11 kts | 83° |
| 2026-05-06 22:27 | 33.93831 | -118.40468 | 96 ft | 17 kts | 83° |
| 2026-05-06 22:27 | 33.93845 | -118.40326 | 96 ft | 18 kts | 82° |
| 2026-05-06 22:27 | 33.93861 | -118.40170 | 97 ft | 20 kts | 83° |
| 2026-05-06 22:27 | 33.93878 | -118.39996 | 96 ft | 22 kts | 83° |
| 2026-05-06 22:28 | 33.93898 | -118.39807 | 97 ft | 24 kts | 83° |
| 2026-05-06 22:28 | 33.93922 | -118.39598 | 95 ft | 26 kts | 81° |
| 2026-05-06 22:28 | 33.93947 | -118.39395 | 94 ft | 18 kts | 83° |
| 2026-05-06 22:28 | 33.93960 | -118.39233 | 94 ft | 20 kts | 85° |
| 2026-05-06 22:29 | 33.93974 | -118.39062 | 94 ft | 21 kts | 83° |
| 2026-05-06 22:29 | 33.93992 | -118.38879 | 94 ft | 23 kts | 83° |
| 2026-05-06 22:29 | 33.94011 | -118.38695 | 96 ft | 20 kts | 82° |
| 2026-05-06 22:29 | 33.94029 | -118.38525 | 95 ft | 20 kts | 83° |
| 2026-05-06 22:30 | 33.94046 | -118.38357 | 96 ft | 21 kts | 83° |
| 2026-05-06 22:30 | 33.94064 | -118.38182 | 94 ft | 22 kts | 83° |
| 2026-05-06 22:30 | 33.94076 | -118.38043 | 93 ft | 12 kts | 92° |
| 2026-05-06 22:30 | 33.94016 | -118.37994 | 94 ft | 12 kts | 185° |
| 2026-05-06 22:31 | 33.93980 | -118.38061 | 94 ft | 0 kts | 264° |
| 2026-05-06 22:32 | 33.93979 | -118.38068 | 94 ft | 4 kts | 264° |
| 2026-05-06 22:32 | 33.93947 | -118.38377 | 99 ft | 72 kts | 262° |
| 2026-05-06 22:32 | 33.93857 | -118.39236 | 95 ft | 132 kts | 263° |
| 2026-05-06 22:32 | 33.93726 | -118.40523 | 188 ft | 170 kts | 262° |
| 2026-05-06 22:33 | 33.93594 | -118.41952 | 761 ft | 174 kts | 261° |
| 2026-05-06 22:33 | 33.93452 | -118.43395 | 1508 ft | 173 kts | 262° |
| 2026-05-06 22:33 | 33.93305 | -118.44840 | 2087 ft | 179 kts | 262° |
| 2026-05-06 22:33 | 33.92866 | -118.46331 | 2311 ft | 201 kts | 239° |
| 2026-05-06 22:34 | 33.91957 | -118.47731 | 2435 ft | 225 kts | 232° |
| 2026-05-06 22:34 | 33.90936 | -118.49273 | 2667 ft | 246 kts | 232° |
| 2026-05-06 22:34 | 33.89814 | -118.50916 | 3161 ft | 260 kts | 231° |
| 2026-05-06 22:34 | 33.88627 | -118.52607 | 3734 ft | 269 kts | 231° |
| 2026-05-06 22:35 | 33.87334 | -118.54271 | 4386 ft | 271 kts | 218° |
| 2026-05-06 22:35 | 33.85718 | -118.55364 | 5263 ft | 268 kts | 199° |
| 2026-05-06 22:35 | 33.83896 | -118.55759 | 5970 ft | 267 kts | 178° |
| 2026-05-06 22:35 | 33.82062 | -118.55435 | 6618 ft | 268 kts | 164° |
| 2026-05-06 22:36 | 33.80244 | -118.54930 | 7248 ft | 269 kts | 164° |
| 2026-05-06 22:36 | 33.78412 | -118.54428 | 7907 ft | 271 kts | 164° |
| 2026-05-06 22:36 | 33.76566 | -118.53924 | 8561 ft | 273 kts | 164° |
| 2026-05-06 22:36 | 33.74707 | -118.53423 | 9200 ft | 276 kts | 164° |
| 2026-05-06 22:37 | 33.72835 | -118.52874 | 9839 ft | 277 kts | 157° |
| 2026-05-06 22:37 | 33.71114 | -118.51862 | 10416 ft | 274 kts | 141° |
| 2026-05-06 22:37 | 33.69700 | -118.50353 | 10976 ft | 272 kts | 125° |
| 2026-05-06 22:37 | 33.68677 | -118.48466 | 11537 ft | 269 kts | 110° |
| 2026-05-06 22:38 | 33.68021 | -118.46371 | 12101 ft | 269 kts | 105° |
| 2026-05-06 22:38 | 33.67396 | -118.44236 | 12668 ft | 274 kts | 105° |
| 2026-05-06 22:38 | 33.66743 | -118.42005 | 12812 ft | 294 kts | 105° |
| 2026-05-06 22:38 | 33.66044 | -118.39616 | 12939 ft | 313 kts | 105° |
| 2026-05-06 22:39 | 33.65301 | -118.37081 | 13098 ft | 330 kts | 105° |
| 2026-05-06 22:39 | 33.64696 | -118.34370 | 13211 ft | 343 kts | 97° |
| 2026-05-06 22:39 | 33.64465 | -118.31472 | 13343 ft | 355 kts | 88° |
| 2026-05-06 22:39 | 33.64470 | -118.28491 | 13527 ft | 367 kts | 87° |
| 2026-05-06 22:40 | 33.64476 | -118.25402 | 13943 ft | 373 kts | 87° |
| 2026-05-06 22:40 | 33.64478 | -118.22284 | 14380 ft | 376 kts | 87° |
| 2026-05-06 22:40 | 33.64475 | -118.19138 | 14844 ft | 378 kts | 87° |
| 2026-05-06 22:40 | 33.64470 | -118.15970 | 15322 ft | 380 kts | 87° |
| 2026-05-06 22:41 | 33.64464 | -118.09583 | 16262 ft | 385 kts | 87° |
| 2026-05-06 22:41 | 33.64462 | -118.06376 | 16720 ft | 387 kts | 87° |
| 2026-05-06 22:41 | 33.64463 | -118.03138 | 17175 ft | 389 kts | 87° |
| 2026-05-06 22:42 | 33.64463 | -117.99880 | 17621 ft | 391 kts | 87° |
| 2026-05-06 22:42 | 33.64462 | -117.96613 | 18056 ft | 393 kts | 87° |
| 2026-05-06 22:42 | 33.64458 | -117.93322 | 18474 ft | 396 kts | 87° |
| 2026-05-06 22:42 | 33.64450 | -117.90006 | 18848 ft | 397 kts | 87° |
| 2026-05-06 22:43 | 33.64440 | -117.86687 | 19213 ft | 399 kts | 87° |
| 2026-05-06 22:43 | 33.64429 | -117.83343 | 19580 ft | 402 kts | 87° |
| 2026-05-06 22:43 | 33.64485 | -117.79997 | 19939 ft | 402 kts | 82° |
| 2026-05-06 22:43 | 33.64952 | -117.76694 | 20303 ft | 401 kts | 74° |
| 2026-05-06 22:44 | 33.65588 | -117.73419 | 20672 ft | 403 kts | 74° |
| 2026-05-06 22:44 | 33.66226 | -117.70133 | 21028 ft | 405 kts | 74° |
| 2026-05-06 22:44 | 33.66863 | -117.66840 | 21382 ft | 407 kts | 74° |
| 2026-05-06 22:44 | 33.67499 | -117.63562 | 21727 ft | 409 kts | 74° |
| 2026-05-06 22:45 | 33.68140 | -117.60226 | 22073 ft | 411 kts | 74° |
| 2026-05-06 22:45 | 33.68782 | -117.56878 | 22391 ft | 413 kts | 73° |
| 2026-05-06 22:45 | 33.69426 | -117.53505 | 22735 ft | 415 kts | 74° |
| 2026-05-06 22:45 | 33.70070 | -117.50124 | 23074 ft | 417 kts | 74° |
| 2026-05-06 22:46 | 33.70715 | -117.46721 | 23406 ft | 419 kts | 74° |
| 2026-05-06 22:46 | 33.71368 | -117.43291 | 23716 ft | 422 kts | 74° |
| 2026-05-06 22:46 | 33.72022 | -117.39848 | 24018 ft | 423 kts | 74° |
| 2026-05-06 22:46 | 33.72678 | -117.36393 | 24321 ft | 425 kts | 74° |
| 2026-05-06 22:47 | 33.73335 | -117.32939 | 24614 ft | 426 kts | 74° |
| 2026-05-06 22:47 | 33.73996 | -117.29465 | 24914 ft | 427 kts | 74° |
| 2026-05-06 22:47 | 33.74656 | -117.25964 | 25220 ft | 428 kts | 75° |
| 2026-05-06 22:47 | 33.75069 | -117.22414 | 25513 ft | 433 kts | 83° |
| 2026-05-06 22:48 | 33.75053 | -117.18783 | 25797 ft | 437 kts | 88° |
| 2026-05-06 22:48 | 33.74970 | -117.15126 | 26096 ft | 438 kts | 88° |
| 2026-05-06 22:48 | 33.74894 | -117.11506 | 26366 ft | 439 kts | 88° |
| 2026-05-06 22:48 | 33.74820 | -117.07790 | 26639 ft | 440 kts | 87° |
| 2026-05-06 22:49 | 33.74749 | -117.04111 | 26883 ft | 441 kts | 87° |
| 2026-05-06 22:49 | 33.74677 | -117.00471 | 27119 ft | 442 kts | 87° |
| 2026-05-06 22:49 | 33.74627 | -116.97977 | 27276 ft | 443 kts | 88° |
| 2026-05-06 22:49 | 33.74545 | -116.94274 | 27502 ft | 444 kts | 88° |
| 2026-05-06 22:50 | 33.74460 | -116.90563 | 27715 ft | 445 kts | 88° |
| 2026-05-06 22:50 | 33.74346 | -116.85648 | 27993 ft | 446 kts | 88° |
| 2026-05-06 22:50 | 33.74259 | -116.81932 | 28285 ft | 444 kts | 88° |
| 2026-05-06 22:50 | 33.74201 | -116.79474 | 28486 ft | 443 kts | 88° |
| 2026-05-06 22:51 | 33.74114 | -116.75776 | 28758 ft | 442 kts | 88° |
| 2026-05-06 22:51 | 33.74028 | -116.72089 | 29071 ft | 440 kts | 87° |
| 2026-05-06 22:51 | 33.73944 | -116.68425 | 29371 ft | 439 kts | 88° |
| 2026-05-06 22:51 | 33.73860 | -116.64767 | 29650 ft | 437 kts | 88° |
| 2026-05-06 22:52 | 33.73775 | -116.61114 | 29912 ft | 437 kts | 87° |
| 2026-05-06 22:52 | 33.73689 | -116.57469 | 30206 ft | 436 kts | 87° |
| 2026-05-06 22:52 | 33.73602 | -116.53843 | 30545 ft | 433 kts | 87° |
| 2026-05-06 22:52 | 33.73510 | -116.50240 | 30877 ft | 430 kts | 87° |
| 2026-05-06 22:53 | 33.73416 | -116.46662 | 31160 ft | 427 kts | 87° |
| 2026-05-06 22:53 | 33.73321 | -116.43097 | 31407 ft | 426 kts | 87° |
| 2026-05-06 22:53 | 33.73227 | -116.39545 | 31649 ft | 425 kts | 87° |
| 2026-05-06 22:53 | 33.73134 | -116.36000 | 31881 ft | 425 kts | 86° |
| 2026-05-06 22:54 | 33.73040 | -116.32456 | 32097 ft | 424 kts | 86° |
| 2026-05-06 22:54 | 33.72946 | -116.28919 | 32322 ft | 423 kts | 86° |
| 2026-05-06 22:54 | 33.72849 | -116.25387 | 32559 ft | 422 kts | 86° |
| 2026-05-06 22:54 | 33.72751 | -116.21873 | 32813 ft | 420 kts | 86° |
| 2026-05-06 22:55 | 33.72653 | -116.18370 | 33066 ft | 419 kts | 86° |
| 2026-05-06 22:55 | 33.72553 | -116.14874 | 33296 ft | 418 kts | 86° |
| 2026-05-06 22:55 | 33.72453 | -116.11399 | 33511 ft | 417 kts | 86° |
| 2026-05-06 22:55 | 33.72559 | -116.07955 | 33706 ft | 410 kts | 78° |
| 2026-05-06 22:56 | 33.73117 | -116.04621 | 33898 ft | 405 kts | 70° |
| 2026-05-06 22:56 | 33.74000 | -116.01419 | 34084 ft | 402 kts | 68° |
| 2026-05-06 22:56 | 33.74882 | -115.98278 | 34251 ft | 402 kts | 68° |
| 2026-05-06 22:56 | 33.75778 | -115.95044 | 34393 ft | 403 kts | 68° |
| 2026-05-06 22:57 | 33.76660 | -115.91840 | 34518 ft | 404 kts | 68° |
| 2026-05-06 22:57 | 33.77533 | -115.88676 | 34638 ft | 405 kts | 68° |
| 2026-05-06 22:57 | 33.78425 | -115.85458 | 34782 ft | 406 kts | 68° |
| 2026-05-06 22:57 | 33.79316 | -115.82240 | 34932 ft | 406 kts | 68° |
| 2026-05-06 22:58 | 33.80207 | -115.79014 | 34987 ft | 407 kts | 68° |
| 2026-05-06 22:58 | 33.81986 | -115.72548 | 34992 ft | 408 kts | 68° |
| 2026-05-06 22:59 | 33.83766 | -115.66073 | 34990 ft | 408 kts | 68° |
| 2026-05-06 22:59 | 33.85550 | -115.59602 | 34987 ft | 408 kts | 69° |
| 2026-05-06 23:00 | 33.87332 | -115.53112 | 34989 ft | 408 kts | 69° |
| 2026-05-06 23:00 | 33.89104 | -115.46608 | 34995 ft | 409 kts | 69° |
| 2026-05-06 23:01 | 33.90877 | -115.40102 | 35002 ft | 410 kts | 69° |
| 2026-05-06 23:01 | 33.92649 | -115.33580 | 35002 ft | 410 kts | 69° |
| 2026-05-06 23:02 | 33.94421 | -115.27057 | 35006 ft | 410 kts | 69° |
| 2026-05-06 23:02 | 33.96193 | -115.20516 | 34997 ft | 411 kts | 69° |
| 2026-05-06 23:03 | 33.97956 | -115.13965 | 34992 ft | 411 kts | 69° |
| 2026-05-06 23:03 | 33.99709 | -115.07456 | 34993 ft | 411 kts | 69° |
| 2026-05-06 23:04 | 34.01475 | -115.00904 | 34974 ft | 411 kts | 69° |
| 2026-05-06 23:04 | 34.03239 | -114.94336 | 34980 ft | 412 kts | 69° |
| 2026-05-06 23:05 | 34.05001 | -114.87755 | 34977 ft | 412 kts | 69° |
| 2026-05-06 23:05 | 34.06759 | -114.81180 | 34982 ft | 412 kts | 69° |
| 2026-05-06 23:06 | 34.08510 | -114.74591 | 34981 ft | 412 kts | 69° |
| 2026-05-06 23:06 | 34.10258 | -114.68004 | 34983 ft | 413 kts | 69° |
| 2026-05-06 23:07 | 34.12070 | -114.61430 | 34978 ft | 412 kts | 68° |
| 2026-05-06 23:07 | 34.13947 | -114.54889 | 34978 ft | 412 kts | 68° |
| 2026-05-06 23:08 | 34.15819 | -114.48354 | 34975 ft | 412 kts | 68° |
| 2026-05-06 23:08 | 34.17667 | -114.41800 | 34975 ft | 412 kts | 68° |
| 2026-05-06 23:09 | 34.19493 | -114.35286 | 34974 ft | 412 kts | 68° |
| 2026-05-06 23:09 | 34.21331 | -114.28715 | 34972 ft | 413 kts | 68° |
| 2026-05-06 23:10 | 34.23166 | -114.22138 | 34974 ft | 414 kts | 68° |
| 2026-05-06 23:10 | 34.25001 | -114.15547 | 34975 ft | 414 kts | 68° |
| 2026-05-06 23:11 | 34.26837 | -114.08960 | 34975 ft | 413 kts | 69° |
| 2026-05-06 23:11 | 34.28670 | -114.02360 | 34980 ft | 414 kts | 69° |
| 2026-05-06 23:12 | 34.30501 | -113.95745 | 34979 ft | 415 kts | 69° |
| 2026-05-06 23:12 | 34.32325 | -113.89128 | 34965 ft | 415 kts | 69° |
| 2026-05-06 23:13 | 34.34155 | -113.82493 | 34978 ft | 416 kts | 69° |
| 2026-05-06 23:13 | 34.35970 | -113.75896 | 34982 ft | 416 kts | 69° |
| 2026-05-06 23:14 | 34.37792 | -113.69252 | 34982 ft | 416 kts | 69° |
| 2026-05-06 23:14 | 34.39616 | -113.62592 | 34983 ft | 417 kts | 69° |
| 2026-05-06 23:15 | 34.41432 | -113.55923 | 34986 ft | 417 kts | 69° |
| 2026-05-06 23:15 | 34.43250 | -113.49261 | 34987 ft | 417 kts | 69° |
| 2026-05-06 23:16 | 34.45064 | -113.42585 | 34992 ft | 417 kts | 69° |
| 2026-05-06 23:16 | 34.46863 | -113.35914 | 34991 ft | 417 kts | 69° |
| 2026-05-06 23:17 | 34.48668 | -113.29238 | 34995 ft | 417 kts | 69° |
| 2026-05-06 23:17 | 34.50459 | -113.22602 | 34993 ft | 417 kts | 69° |
| 2026-05-06 23:18 | 34.52254 | -113.15931 | 34992 ft | 416 kts | 69° |
| 2026-05-06 23:18 | 34.54042 | -113.09255 | 35000 ft | 416 kts | 69° |
| 2026-05-06 23:19 | 34.55835 | -113.02563 | 34989 ft | 417 kts | 69° |
| 2026-05-06 23:19 | 34.57626 | -112.95854 | 34986 ft | 418 kts | 69° |
| 2026-05-06 23:20 | 34.59410 | -112.89136 | 34987 ft | 419 kts | 69° |
| 2026-05-06 23:20 | 34.61197 | -112.82404 | 34988 ft | 419 kts | 69° |
| 2026-05-06 23:21 | 34.62985 | -112.75677 | 34999 ft | 419 kts | 69° |
| 2026-05-06 23:21 | 34.64775 | -112.68922 | 34982 ft | 421 kts | 69° |
| 2026-05-06 23:22 | 34.66558 | -112.62139 | 34981 ft | 422 kts | 69° |
| 2026-05-06 23:22 | 34.68340 | -112.55349 | 34980 ft | 422 kts | 69° |
| 2026-05-06 23:23 | 34.70115 | -112.48597 | 35115 ft | 422 kts | 69° |
| 2026-05-06 23:23 | 34.71792 | -112.41750 | 35122 ft | 424 kts | 71° |
| 2026-05-06 23:24 | 34.73343 | -112.34827 | 35114 ft | 425 kts | 72° |
| 2026-05-06 23:24 | 34.74891 | -112.27899 | 35086 ft | 425 kts | 71° |
| 2026-05-06 23:25 | 34.76479 | -112.20974 | 35057 ft | 425 kts | 71° |
| 2026-05-06 23:25 | 34.78066 | -112.14058 | 35026 ft | 425 kts | 71° |